Terminal Aerodrome Forecast
Issued by NWS Austin/San Antonio, TX

Home | Current Version | Previous Version | Text Only | Print | Product List | Glossary On
Versions: 1 2 3 4 5 6 7 8 9 10 11 12 13 14 15 16 17
000
FTUS44 KEWX 142300
TAFSAT
TAF
KSAT 142326Z 1500/1606 08006KT P6SM FEW030 BKN230
     FM150400 VRB03KT P6SM BKN025
     FM151100 03002KT P6SM OVC015
     FM151300 02004KT P6SM BKN050
     FM152300 08008KT P6SM OVC070=

USA.gov is the U.S. government's official web portal to all federal, state and local government web resources and services.